Time;durP1;ratioP1;P1;durP2;ratioP2;P2;SDS_P1;SDS_P2;PMS_P1;PMS_P2;Temp;Humidity;BMP_temperature;BMP_pressure;BME280_temperature;BME280_humidity;BME280_pressure;Samples;Min_cycle;Max_cycle;Signal;HPM_P1;HPM_P2
2021/04/17 00:01:44;;;;;;;25.00;16.30;;;-0.20;99.90;;;;;;5009986;28;20068;-86
2021/04/17 00:04:16;;;;;;;25.33;17.50;;;-0.20;99.90;;;;;;5014007;28;20431;-88
2021/04/17 00:06:43;;;;;;;24.10;16.70;;;-0.30;99.90;;;;;;5011846;28;20138;-87
2021/04/17 00:09:35;;;;;;;26.42;17.35;;;-0.40;99.90;;;;;;5005555;28;20050;-88
2021/04/17 00:12:19;;;;;;;26.58;17.92;;;-0.50;99.90;;;;;;5009550;28;20355;-88
2021/04/17 00:14:49;;;;;;;29.50;19.42;;;-0.50;99.90;;;;;;5013509;28;20449;-89
2021/04/17 00:17:18;;;;;;;34.08;20.40;;;-0.40;99.90;;;;;;5008160;28;20057;-88
2021/04/17 00:19:50;;;;;;;35.15;20.38;;;-0.40;99.90;;;;;;5008212;28;20105;-87
2021/04/17 00:22:17;;;;;;;30.20;19.20;;;-0.40;99.90;;;;;;5021589;28;20050;-88
2021/04/17 00:24:44;;;;;;;30.02;19.70;;;-0.40;99.90;;;;;;5016533;28;20125;-87
2021/04/17 00:27:16;;;;;;;33.22;20.80;;;-0.50;99.90;;;;;;5027193;28;20042;-87
2021/04/17 00:29:43;;;;;;;33.45;20.75;;;-0.50;99.90;;;;;;5027362;28;20046;-87
2021/04/17 00:32:12;;;;;;;31.88;19.92;;;-0.50;99.90;;;;;;5029025;28;20054;-87
2021/04/17 00:34:40;;;;;;;34.17;20.90;;;-0.50;99.90;;;;;;5016168;28;20049;-87
2021/04/17 00:37:13;;;;;;;32.15;19.55;;;-0.60;99.90;;;;;;5015969;28;20070;-88
2021/04/17 00:39:44;;;;;;;33.05;21.17;;;-0.60;99.90;;;;;;5009705;28;20094;-88
2021/04/17 00:42:14;;;;;;;36.22;22.23;;;-0.60;99.90;;;;;;4990358;28;20124;-88
2021/04/17 00:44:42;;;;;;;35.20;22.02;;;-0.60;99.90;;;;;;4992142;28;20045;-86
2021/04/17 00:47:09;;;;;;;37.10;22.23;;;-0.60;99.90;;;;;;5014886;28;20074;-87
2021/04/17 00:49:55;;;;;;;37.08;22.67;;;-0.60;99.90;;;;;;5000950;28;20073;-88
2021/04/17 00:52:38;;;;;;;37.75;22.27;;;-0.60;99.90;;;;;;5008359;28;20060;-88
2021/04/17 00:55:14;;;;;;;35.88;21.88;;;-0.60;99.90;;;;;;5011774;28;20050;-88
2021/04/17 00:57:43;;;;;;;36.20;22.92;;;-0.60;99.90;;;;;;5012871;28;20050;-87
2021/04/17 01:00:14;;;;;;;38.22;23.63;;;-0.60;99.90;;;;;;5006354;28;20434;-87
2021/04/17 01:02:47;;;;;;;43.30;24.30;;;-0.60;99.90;;;;;;5012248;28;20077;-87
2021/04/17 01:05:17;;;;;;;38.47;23.23;;;-0.60;99.90;;;;;;5010041;28;20065;-88
2021/04/17 01:07:51;;;;;;;41.72;22.92;;;-0.60;99.90;;;;;;5004962;28;20064;-88
2021/04/17 01:10:37;;;;;;;38.05;22.55;;;-0.60;99.90;;;;;;5030383;28;20054;-88
2021/04/17 01:13:14;;;;;;;37.92;22.70;;;-0.60;99.90;;;;;;5010225;28;20049;-88
2021/04/17 01:15:41;;;;;;;37.85;22.88;;;-0.60;99.90;;;;;;5012660;28;20057;-87
2021/04/17 01:18:15;;;;;;;40.83;23.40;;;-0.50;99.90;;;;;;5009650;28;20078;-89
2021/04/17 01:20:45;;;;;;;35.03;22.35;;;-0.60;99.90;;;;;;5008677;28;20108;-88
2021/04/17 01:23:37;;;;;;;40.47;23.27;;;-0.50;99.90;;;;;;5006154;28;20111;-87
2021/04/17 01:26:10;;;;;;;40.92;23.10;;;-0.50;99.90;;;;;;5002669;28;20049;-86
2021/04/17 01:28:43;;;;;;;40.88;24.05;;;-0.50;99.90;;;;;;5003531;28;20042;-87
2021/04/17 01:31:20;;;;;;;40.42;24.33;;;-0.50;99.90;;;;;;5006377;28;20657;-86
2021/04/17 01:33:50;;;;;;;39.95;25.17;;;-0.50;99.90;;;;;;5005749;28;20057;-88
2021/04/17 01:36:19;;;;;;;47.92;25.23;;;-0.40;99.90;;;;;;5004283;28;20485;-87
2021/04/17 01:38:46;;;;;;;40.13;23.83;;;-0.30;99.90;;;;;;5010271;28;20459;-87
2021/04/17 01:41:42;;;;;;;38.88;24.13;;;-0.30;99.90;;;;;;5002786;28;20505;-87
2021/04/17 01:44:39;;;;;;;44.63;25.02;;;-0.30;99.90;;;;;;5009586;28;20123;-87
2021/04/17 01:47:16;;;;;;;42.53;25.63;;;-0.30;99.90;;;;;;4996739;28;20042;-88
2021/04/17 01:49:50;;;;;;;46.85;26.77;;;-0.30;99.90;;;;;;5010651;28;20045;-88
2021/04/17 01:52:22;;;;;;;43.35;25.63;;;-0.30;99.90;;;;;;5002707;28;20065;-87
2021/04/17 01:54:54;;;;;;;49.30;27.27;;;-0.30;99.90;;;;;;5008693;28;20053;-86
2021/04/17 01:57:24;;;;;;;47.63;27.38;;;-0.30;99.90;;;;;;5008290;28;20112;-87
2021/04/17 01:59:52;;;;;;;51.20;27.98;;;-0.30;99.90;;;;;;5011600;28;20124;-88
2021/04/17 02:02:19;;;;;;;45.53;26.73;;;-0.30;99.90;;;;;;5010676;28;20046;-87
2021/04/17 02:04:46;;;;;;;46.33;27.63;;;-0.30;99.90;;;;;;5011273;28;20046;-87
2021/04/17 02:07:13;;;;;;;44.38;27.05;;;-0.30;99.90;;;;;;5008790;28;20125;-87
2021/04/17 02:09:40;;;;;;;40.00;24.60;;;-0.20;99.90;;;;;;5008631;28;20065;-88
2021/04/17 02:12:13;;;;;;;37.00;23.05;;;-0.20;99.90;;;;;;5004402;28;20046;-86
2021/04/17 02:14:39;;;;;;;35.70;23.05;;;-0.20;99.90;;;;;;4986932;28;20050;-87
2021/04/17 02:17:22;;;;;;;41.47;22.98;;;-0.30;99.90;;;;;;5010064;28;20424;-87
2021/04/17 02:20:11;;;;;;;34.00;22.33;;;-0.30;99.90;;;;;;5009010;28;20057;-86
2021/04/17 02:22:39;;;;;;;36.40;22.90;;;-0.30;99.90;;;;;;5006416;28;20064;-86
2021/04/17 02:25:13;;;;;;;35.35;22.10;;;-0.30;99.90;;;;;;5012479;28;20046;-89
2021/04/17 02:27:40;;;;;;;44.33;23.50;;;-0.30;99.90;;;;;;5006041;28;20137;-88
2021/04/17 02:30:14;;;;;;;36.20;22.60;;;-0.30;99.90;;;;;;5011243;28;20046;-87
2021/04/17 02:32:40;;;;;;;35.33;23.30;;;-0.30;99.90;;;;;;5006025;28;20053;-88
2021/04/17 02:35:13;;;;;;;39.17;23.85;;;-0.30;99.90;;;;;;5009861;28;20153;-87
2021/04/17 02:37:40;;;;;;;42.47;24.92;;;-0.30;99.90;;;;;;5002468;28;20058;-86
2021/04/17 02:40:13;;;;;;;43.05;26.98;;;-0.30;99.90;;;;;;5002994;28;20064;-86
2021/04/17 02:42:39;;;;;;;47.00;27.10;;;-0.20;99.90;;;;;;4988080;28;20057;-87
2021/04/17 02:45:12;;;;;;;44.58;26.58;;;-0.10;99.90;;;;;;5011612;28;20072;-87
2021/04/17 02:47:39;;;;;;;46.17;27.33;;;0.00;99.90;;;;;;5009541;28;20487;-87
2021/04/17 02:50:12;;;;;;;48.83;27.83;;;0.00;99.90;;;;;;4999716;28;20343;-87
2021/04/17 02:52:40;;;;;;;42.33;25.38;;;0.10;99.90;;;;;;4989833;28;20075;-87
2021/04/17 02:55:13;;;;;;;43.85;27.52;;;0.10;99.90;;;;;;5012040;28;20053;-86
2021/04/17 02:57:41;;;;;;;54.70;30.15;;;0.10;99.90;;;;;;5010926;28;20050;-86
2021/04/17 03:00:13;;;;;;;50.45;27.73;;;0.10;99.90;;;;;;5005666;28;20054;-87
2021/04/17 03:02:40;;;;;;;48.17;29.48;;;0.10;99.90;;;;;;5021748;28;20046;-87
2021/04/17 03:05:13;;;;;;;42.85;25.70;;;0.10;99.90;;;;;;5033021;28;20037;-87
2021/04/17 03:07:40;;;;;;;52.30;28.48;;;0.20;99.90;;;;;;5027121;28;20073;-89
2021/04/17 03:10:14;;;;;;;49.38;27.88;;;0.20;99.90;;;;;;5020646;28;20050;-88
2021/04/17 03:12:40;;;;;;;39.33;25.58;;;0.20;99.90;;;;;;5013894;28;20100;-87
2021/04/17 03:15:13;;;;;;;46.80;27.98;;;0.20;99.90;;;;;;4992660;28;20062;-86
2021/04/17 03:17:40;;;;;;;48.30;30.08;;;0.20;99.90;;;;;;5004807;28;20125;-86
2021/04/17 03:20:14;;;;;;;54.03;31.70;;;0.20;99.90;;;;;;5017685;28;20060;-86
2021/04/17 03:22:40;;;;;;;53.42;33.60;;;0.30;99.90;;;;;;4994779;28;20132;-86
2021/04/17 03:25:14;;;;;;;53.03;32.22;;;0.30;99.90;;;;;;4996361;28;20046;-86
2021/04/17 03:27:42;;;;;;;54.65;33.70;;;0.40;99.90;;;;;;5014460;28;20042;-85
2021/04/17 03:30:17;;;;;;;56.58;34.42;;;0.40;99.90;;;;;;5015124;28;20057;-88
2021/04/17 03:32:44;;;;;;;56.50;33.53;;;0.30;99.90;;;;;;5011954;28;20101;-87
2021/04/17 03:35:14;;;;;;;56.90;32.72;;;0.40;99.90;;;;;;5008301;28;20471;-88
2021/04/17 03:37:41;;;;;;;55.35;34.47;;;0.30;99.90;;;;;;5009289;28;20046;-87
2021/04/17 03:40:14;;;;;;;54.22;32.95;;;0.30;99.90;;;;;;5016733;28;20054;-86
2021/04/17 03:42:40;;;;;;;60.78;35.58;;;0.30;99.90;;;;;;5024797;28;20041;-88
2021/04/17 03:45:18;;;;;;;49.30;29.90;;;0.20;99.90;;;;;;5024733;28;20050;-87
2021/04/17 03:47:45;;;;;;;49.92;30.23;;;0.10;99.90;;;;;;5030521;28;20046;-86
2021/04/17 03:50:13;;;;;;;50.88;30.00;;;0.10;99.90;;;;;;5020718;28;20092;-86
2021/04/17 03:52:40;;;;;;;48.28;30.45;;;0.00;99.90;;;;;;5010315;28;20111;-86
2021/04/17 03:55:16;;;;;;;53.85;31.33;;;-0.10;99.90;;;;;;5015500;28;20112;-88
2021/04/17 03:57:43;;;;;;;55.20;33.33;;;-0.10;99.90;;;;;;5005271;28;20038;-87
2021/04/17 04:00:17;;;;;;;55.42;32.70;;;-0.20;99.90;;;;;;5011669;28;20053;-87
2021/04/17 04:02:45;;;;;;;51.80;32.67;;;-0.20;99.90;;;;;;5009609;28;20045;-87
2021/04/17 04:05:12;;;;;;;54.20;32.53;;;-0.20;99.90;;;;;;5012122;28;20042;-87
2021/04/17 04:07:39;;;;;;;60.78;34.70;;;-0.30;99.90;;;;;;5002045;28;20482;-86
2021/04/17 04:10:14;;;;;;;59.95;36.13;;;-0.20;99.90;;;;;;5008458;28;20058;-87
2021/04/17 04:12:42;;;;;;;65.35;38.22;;;-0.20;99.90;;;;;;5009117;28;20050;-87
2021/04/17 04:15:15;;;;;;;67.18;38.47;;;-0.20;99.90;;;;;;5011962;28;20060;-87
2021/04/17 04:17:42;;;;;;;;;;;-0.20;99.90;;;;;;4995641;28;20380;-87
2021/04/17 04:20:12;;;;;;;63.17;35.65;;;-0.20;99.90;;;;;;5001929;28;19939;-87
2021/04/17 04:22:40;;;;;;;69.32;38.58;;;-0.30;99.90;;;;;;5010668;28;20486;-87
2021/04/17 04:25:13;;;;;;;70.20;40.58;;;-0.30;99.90;;;;;;5012918;28;20046;-87
2021/04/17 04:27:39;;;;;;;64.53;37.53;;;-0.30;99.90;;;;;;5012049;28;20050;-86
2021/04/17 04:30:15;;;;;;;61.70;35.20;;;-0.30;99.90;;;;;;5012675;28;20048;-88
2021/04/17 04:32:42;;;;;;;56.63;33.38;;;-0.40;99.90;;;;;;5012889;28;20062;-88
2021/04/17 04:35:12;;;;;;;60.22;34.50;;;-0.50;99.90;;;;;;4993568;28;20053;-87
2021/04/17 04:37:38;;;;;;;60.17;33.35;;;-0.60;99.90;;;;;;5004112;28;20177;-87
2021/04/17 04:40:15;;;;;;;59.20;35.03;;;-0.60;99.90;;;;;;5023012;28;20061;-87
2021/04/17 04:42:41;;;;;;;58.08;33.85;;;-0.60;99.90;;;;;;4979157;28;20075;-87
2021/04/17 04:45:12;;;;;;;61.25;35.63;;;-0.60;99.90;;;;;;4971168;28;20054;-88
2021/04/17 04:47:39;;;;;;;62.95;35.75;;;-0.60;99.90;;;;;;5005649;28;20068;-87
2021/04/17 04:50:13;;;;;;;66.40;37.85;;;-0.60;99.90;;;;;;5012206;28;20065;-86
2021/04/17 04:52:48;;;;;;;64.32;37.20;;;-0.60;99.90;;;;;;5007677;28;20042;-87
2021/04/17 04:55:14;;;;;;;63.92;37.17;;;-0.70;99.90;;;;;;4993734;28;20387;-87
2021/04/17 04:57:41;;;;;;;64.28;38.80;;;-0.70;99.90;;;;;;5007370;28;20054;-88
2021/04/17 05:00:14;;;;;;;75.57;41.72;;;-0.60;99.90;;;;;;5012366;28;20065;-88
2021/04/17 05:02:41;;;;;;;76.47;40.55;;;-0.60;99.90;;;;;;5009943;28;20053;-87
2021/04/17 05:05:08;;;;;;;79.43;44.13;;;-0.50;99.90;;;;;;5012938;28;20076;-87
2021/04/17 05:07:35;;;;;;;85.30;45.15;;;-0.40;99.90;;;;;;5012858;28;20076;-88
2021/04/17 05:10:14;;;;;;;85.97;45.50;;;-0.30;99.90;;;;;;4996392;28;20082;-89
2021/04/17 05:12:41;;;;;;;80.07;42.60;;;-0.10;99.90;;;;;;4979363;28;20074;-86
2021/04/17 05:15:11;;;;;;;64.97;38.78;;;0.10;99.90;;;;;;5011206;28;20046;-88
2021/04/17 05:17:38;;;;;;;78.93;41.47;;;0.10;99.90;;;;;;5013211;28;20049;-87
2021/04/17 05:20:14;;;;;;;73.93;41.03;;;0.20;99.90;;;;;;5018542;28;20053;-87
2021/04/17 05:22:41;;;;;;;78.07;41.88;;;0.30;99.90;;;;;;5023206;28;20038;-87
2021/04/17 05:25:14;;;;;;;74.82;42.47;;;0.40;99.90;;;;;;5017380;28;20048;-87
2021/04/17 05:27:42;;;;;;;67.45;39.45;;;0.60;99.90;;;;;;5019227;28;20053;-87
2021/04/17 05:30:09;;;;;;;68.00;38.20;;;0.60;99.90;;;;;;5003562;28;20329;-88
2021/04/17 05:32:38;;;;;;;63.60;38.50;;;0.70;99.90;;;;;;5014176;28;20092;-87
2021/04/17 05:35:06;;;;;;;55.95;36.40;;;0.80;99.90;;;;;;4998383;28;20053;-89
2021/04/17 05:37:35;;;;;;;59.60;35.90;;;0.80;99.90;;;;;;5014004;28;20063;-87
2021/04/17 05:40:04;;;;;;;56.05;35.35;;;0.90;99.90;;;;;;5013215;28;20049;-88
2021/04/17 05:42:31;;;;;;;55.10;34.33;;;1.00;99.90;;;;;;5013039;28;20053;-87
2021/04/17 05:45:04;;;;;;;49.22;31.15;;;1.00;99.90;;;;;;5015226;28;20140;-87
2021/04/17 05:47:32;;;;;;;51.53;32.28;;;1.10;99.90;;;;;;5010482;28;20110;-87
2021/04/17 05:50:08;;;;;;;48.45;31.65;;;1.20;99.90;;;;;;5009941;28;20420;-86
2021/04/17 05:52:34;;;;;;;46.22;30.25;;;1.20;99.90;;;;;;5007800;28;20124;-88
2021/04/17 05:55:05;;;;;;;43.97;29.65;;;1.30;99.90;;;;;;5011094;28;20053;-89
2021/04/17 05:57:41;;;;;;;45.65;30.02;;;1.40;99.90;;;;;;5010852;28;20140;-89
2021/04/17 06:00:10;;;;;;;45.42;29.30;;;1.50;99.90;;;;;;5009158;28;20053;-88
2021/04/17 06:02:37;;;;;;;40.03;27.80;;;1.50;99.90;;;;;;5010827;28;20128;-87
2021/04/17 06:05:05;;;;;;;40.80;27.73;;;1.60;99.90;;;;;;5011901;28;20081;-89
2021/04/17 06:07:35;;;;;;;39.92;27.15;;;1.70;99.90;;;;;;5010841;28;20045;-88
2021/04/17 06:10:11;;;;;;;41.33;27.17;;;1.80;99.90;;;;;;5012200;28;21423;-88
2021/04/17 06:12:41;;;;;;;43.88;26.20;;;1.90;99.90;;;;;;5001290;28;20438;-89
2021/04/17 06:15:12;;;;;;;36.95;26.90;;;2.10;99.90;;;;;;5012912;28;20080;-90
2021/04/17 06:17:41;;;;;;;38.72;25.92;;;2.30;99.90;;;;;;5007532;28;20456;-89
2021/04/17 06:20:12;;;;;;;36.35;23.98;;;2.40;99.90;;;;;;5007235;28;20184;-88
2021/04/17 06:22:42;;;;;;;32.90;23.20;;;2.60;99.90;;;;;;4986707;28;20160;-89
2021/04/17 06:25:12;;;;;;;36.03;24.33;;;2.70;99.90;;;;;;5007847;28;20052;-86
2021/04/17 06:27:38;;;;;;;33.60;24.50;;;2.70;99.90;;;;;;5004780;28;20073;-87
2021/04/17 06:30:06;;;;;;;32.40;21.70;;;2.80;99.90;;;;;;5004735;28;20451;-87
2021/04/17 06:32:33;;;;;;;34.17;22.77;;;2.80;99.90;;;;;;5011763;28;20074;-86
2021/04/17 06:35:03;;;;;;;31.10;22.15;;;3.00;99.90;;;;;;5028416;28;20049;-88
2021/04/17 06:37:30;;;;;;;30.50;22.63;;;3.20;99.90;;;;;;5025767;28;20030;-88
2021/04/17 06:39:56;;;;;;;30.33;22.08;;;3.30;99.90;;;;;;5032562;28;20042;-89
2021/04/17 06:42:28;;;;;;;28.42;21.40;;;3.40;99.90;;;;;;5028989;28;20077;-88
2021/04/17 06:44:56;;;;;;;33.97;21.52;;;3.50;99.90;;;;;;5018407;28;20046;-87
2021/04/17 06:47:23;;;;;;;27.98;21.58;;;3.50;99.90;;;;;;5023789;28;20066;-86
2021/04/17 06:49:50;;;;;;;29.60;22.70;;;3.70;99.90;;;;;;5025549;28;20058;-88
2021/04/17 06:52:20;;;;;;;31.35;22.60;;;3.80;99.90;;;;;;5014871;28;20067;-88
2021/04/17 06:54:47;;;;;;;27.90;21.83;;;4.00;99.90;;;;;;5026376;28;20653;-90
2021/04/17 06:57:14;;;;;;;27.65;20.75;;;4.20;99.90;;;;;;5029295;28;20128;-87
2021/04/17 06:59:46;;;;;;;30.42;21.35;;;4.40;99.90;;;;;;5028594;28;20082;-87
2021/04/17 07:02:16;;;;;;;28.63;20.35;;;4.60;99.90;;;;;;5023280;28;20045;-88
2021/04/17 07:04:44;;;;;;;29.13;20.83;;;4.90;99.90;;;;;;5036160;28;20797;-89
2021/04/17 07:07:12;;;;;;;30.35;21.55;;;5.20;99.90;;;;;;5027091;28;20184;-89
2021/04/17 07:09:39;;;;;;;27.38;20.42;;;5.50;99.90;;;;;;5018098;28;20435;-88
2021/04/17 07:12:07;;;;;;;25.63;19.17;;;5.70;99.90;;;;;;5009429;28;20049;-88
2021/04/17 07:14:52;;;;;;;29.40;20.25;;;6.10;99.90;;;;;;4992784;28;20463;-87
2021/04/17 07:17:21;;;;;;;24.20;19.15;;;6.70;99.90;;;;;;5016507;28;20050;-88
2021/04/17 07:20:01;;;;;;;28.00;20.67;;;7.20;99.90;;;;;;5007077;28;20046;-88
2021/04/17 07:22:52;;;;;;;26.08;20.40;;;7.30;99.90;;;;;;5024278;28;20046;-88
2021/04/17 07:25:39;;;;;;;29.02;20.58;;;7.40;99.90;;;;;;4959967;28;20118;-88
2021/04/17 07:28:14;;;;;;;29.60;21.40;;;7.70;99.90;;;;;;4970943;28;20505;-89
2021/04/17 07:30:44;;;;;;;28.95;20.65;;;7.90;99.90;;;;;;4974629;28;20043;-86
2021/04/17 07:33:14;;;;;;;29.83;21.83;;;8.30;99.90;;;;;;4979875;28;20081;-86
2021/04/17 07:35:49;;;;;;;27.88;21.35;;;8.40;99.50;;;;;;4976819;28;20062;-85
2021/04/17 07:38:18;;;;;;;26.55;19.50;;;8.70;96.90;;;;;;4974837;28;20133;-88
2021/04/17 07:40:47;;;;;;;24.88;18.83;;;8.60;97.40;;;;;;4973552;28;20081;-88
2021/04/17 07:43:17;;;;;;;28.10;19.77;;;8.60;95.20;;;;;;4976531;28;20054;-89
2021/04/17 07:45:44;;;;;;;23.40;18.67;;;8.80;97.00;;;;;;5009619;28;20041;-89
2021/04/17 07:48:25;;;;;;;22.98;18.15;;;9.00;94.60;;;;;;5022719;28;20371;-88
2021/04/17 07:50:59;;;;;;;25.70;18.55;;;9.10;96.00;;;;;;5014590;28;20054;-89
2021/04/17 07:53:43;;;;;;;25.15;18.48;;;9.10;94.50;;;;;;5014018;28;20046;-88
2021/04/17 07:56:32;;;;;;;32.38;18.90;;;9.40;94.60;;;;;;5015081;28;20490;-89
2021/04/17 07:59:07;;;;;;;22.92;17.50;;;10.00;92.60;;;;;;5014391;28;20045;-89
2021/04/17 08:01:34;;;;;;;26.00;16.10;;;10.20;92.00;;;;;;5012430;28;20110;-84
2021/04/17 08:04:06;;;;;;;22.27;15.43;;;10.30;88.90;;;;;;4990879;28;20136;-87
2021/04/17 08:06:35;;;;;;;22.77;15.10;;;10.20;86.00;;;;;;5014586;28;20092;-90
2021/04/17 08:09:06;;;;;;;20.02;14.95;;;10.10;86.70;;;;;;5012767;28;20116;-86
2021/04/17 08:11:34;;;;;;;21.83;16.05;;;9.50;86.70;;;;;;5014020;28;20133;-89
2021/04/17 08:14:04;;;;;;;21.08;14.50;;;9.70;90.50;;;;;;4995907;28;20054;-87
2021/04/17 08:16:33;;;;;;;19.90;13.32;;;10.00;85.20;;;;;;5012007;28;20175;-86
2021/04/17 08:19:00;;;;;;;18.85;13.88;;;10.60;85.20;;;;;;5013845;28;20379;-84
2021/04/17 08:21:29;;;;;;;17.58;13.57;;;10.90;78.30;;;;;;5016267;28;20084;-85
2021/04/17 08:23:56;;;;;;;20.13;13.38;;;11.30;77.80;;;;;;5011330;28;20050;-86
2021/04/17 08:26:23;;;;;;;15.25;12.80;;;12.30;72.60;;;;;;5010674;28;20046;-86
2021/04/17 08:28:51;;;;;;;18.15;12.93;;;12.10;70.70;;;;;;5010836;28;20364;-86
2021/04/17 08:31:25;;;;;;;20.08;14.52;;;12.40;67.50;;;;;;5012052;28;20064;-87
2021/04/17 08:34:14;;;;;;;19.05;12.95;;;11.70;67.70;;;;;;5009828;28;20061;-87
2021/04/17 08:36:52;;;;;;;17.30;10.82;;;11.30;73.50;;;;;;5013324;28;20096;-85
2021/04/17 08:39:36;;;;;;;14.85;10.10;;;11.00;68.70;;;;;;5001771;28;20446;-88
2021/04/17 08:42:07;;;;;;;15.40;9.98;;;10.10;69.20;;;;;;5012714;28;20058;-87
2021/04/17 08:44:39;;;;;;;12.75;8.38;;;9.40;72.60;;;;;;5009137;28;20038;-87
2021/04/17 08:47:11;;;;;;;12.57;8.77;;;9.10;73.50;;;;;;5009990;28;20364;-87
2021/04/17 08:49:41;;;;;;;15.57;10.20;;;9.20;74.10;;;;;;5011955;28;20124;-89
2021/04/17 08:52:20;;;;;;;11.38;7.60;;;9.80;75.10;;;;;;5013216;28;20056;-87
2021/04/17 08:55:16;;;;;;;14.07;7.72;;;9.90;70.70;;;;;;5004228;28;20063;-86
2021/04/17 08:57:43;;;;;;;10.30;6.85;;;10.40;68.70;;;;;;5010347;28;20143;-89
2021/04/17 09:00:10;;;;;;;12.50;8.02;;;10.70;67.30;;;;;;4995944;28;20072;-88
2021/04/17 09:02:46;;;;;;;12.50;6.65;;;11.70;64.90;;;;;;5010593;28;20042;-87
2021/04/17 09:05:17;;;;;;;10.57;7.28;;;11.90;62.70;;;;;;5010634;28;20048;-88
2021/04/17 09:07:47;;;;;;;10.65;7.90;;;12.30;61.10;;;;;;5005240;28;20056;-88
2021/04/17 09:10:23;;;;;;;10.45;6.68;;;12.20;60.00;;;;;;5010318;28;20128;-87
2021/04/17 09:13:11;;;;;;;12.45;6.50;;;11.60;60.00;;;;;;5008667;28;20049;-88
2021/04/17 09:16:01;;;;;;;8.63;6.38;;;10.60;63.30;;;;;;5011684;28;20300;-85
2021/04/17 09:18:37;;;;;;;10.68;6.85;;;10.00;63.40;;;;;;5012781;28;20101;-87
2021/04/17 09:21:15;;;;;;;8.68;5.72;;;9.80;64.70;;;;;;5009495;28;20463;-90
2021/04/17 09:23:45;;;;;;;8.38;6.60;;;9.80;64.20;;;;;;5006058;28;20042;-89
2021/04/17 09:26:30;;;;;;;10.35;6.90;;;9.70;64.30;;;;;;5012038;28;20041;-88
2021/04/17 09:29:02;;;;;;;11.27;6.85;;;10.30;66.60;;;;;;5011491;28;20046;-88
2021/04/17 09:31:36;;;;;;;8.80;6.85;;;11.60;63.50;;;;;;5007176;28;20132;-88
2021/04/17 09:34:14;;;;;;;11.07;5.80;;;12.80;59.20;;;;;;5003483;28;20062;-89
2021/04/17 09:36:41;;;;;;;12.65;6.30;;;13.10;55.60;;;;;;5009453;28;20453;-87
2021/04/17 09:39:32;;;;;;;11.40;6.22;;;13.20;55.10;;;;;;5010780;28;20057;-88
2021/04/17 09:42:01;;;;;;;8.30;6.40;;;13.30;55.40;;;;;;5006835;28;20086;-88
2021/04/17 09:44:50;;;;;;;8.20;5.85;;;13.50;55.20;;;;;;5006674;28;20034;-88
2021/04/17 09:47:18;;;;;;;9.55;6.65;;;14.20;54.60;;;;;;5007390;28;20042;-89
2021/04/17 09:49:47;;;;;;;9.93;6.70;;;15.10;52.50;;;;;;5014566;28;20129;-89
2021/04/17 09:52:19;;;;;;;8.85;5.07;;;14.80;51.00;;;;;;5047419;28;20073;-90
2021/04/17 09:54:47;;;;;;;8.63;5.72;;;14.00;49.90;;;;;;5010727;28;20383;-86
2021/04/17 09:57:13;;;;;;;6.43;5.03;;;13.20;52.90;;;;;;5011425;28;20050;-86
2021/04/17 09:59:52;;;;;;;7.03;4.65;;;13.60;54.10;;;;;;5010205;28;20045;-88
2021/04/17 10:02:19;;;;;;;9.13;4.03;;;13.70;51.90;;;;;;5010431;28;20046;-89
2021/04/17 10:04:59;;;;;;;7.43;4.43;;;13.20;50.40;;;;;;5018080;28;20053;-87
2021/04/17 10:07:29;;;;;;;8.18;4.30;;;12.40;52.60;;;;;;5031098;28;20049;-85
2021/04/17 10:10:10;;;;;;;9.82;5.15;;;11.40;54.40;;;;;;5022764;28;20030;-88
2021/04/17 10:12:52;;;;;;;8.52;4.32;;;10.50;56.90;;;;;;5028376;28;20050;-89
2021/04/17 10:15:31;;;;;;;8.90;5.13;;;10.00;59.00;;;;;;5026221;28;20119;-88
2021/04/17 10:18:07;;;;;;;8.73;5.10;;;9.80;59.40;;;;;;5018899;28;20486;-89
2021/04/17 10:20:34;;;;;;;6.93;4.72;;;10.10;60.40;;;;;;5012340;28;20046;-87
2021/04/17 10:23:09;;;;;;;11.30;5.03;;;9.90;59.50;;;;;;5017752;28;20049;-88
2021/04/17 10:25:37;;;;;;;5.57;4.20;;;10.20;59.50;;;;;;5012053;28;20109;-88
2021/04/17 10:28:16;;;;;;;9.23;4.32;;;10.70;58.50;;;;;;5014816;28;20117;-86
2021/04/17 10:30:45;;;;;;;9.05;4.70;;;10.80;56.50;;;;;;5011363;28;20410;-87
2021/04/17 10:33:19;;;;;;;6.45;5.00;;;10.50;57.60;;;;;;5016336;28;20073;-88
2021/04/17 10:35:46;;;;;;;;;;;10.30;58.20;;;;;;5014590;28;20053;-88
2021/04/17 10:38:29;;;;;;;7.97;4.75;;;10.20;58.50;;;;;;5015894;28;20352;-86
2021/04/17 10:40:57;;;;;;;8.48;5.22;;;10.30;59.00;;;;;;5015238;28;20049;-86
2021/04/17 10:43:26;;;;;;;7.22;5.32;;;10.10;58.70;;;;;;5016600;28;20555;-86
2021/04/17 10:46:03;;;;;;;8.60;5.43;;;10.00;60.00;;;;;;5016019;28;20129;-86
2021/04/17 10:48:44;;;;;;;10.05;6.43;;;9.70;60.50;;;;;;5016279;28;20086;-87
2021/04/17 10:51:14;;;;;;;9.85;6.07;;;9.60;61.70;;;;;;5015366;28;20366;-88
2021/04/17 10:53:44;;;;;;;10.48;6.03;;;9.70;61.50;;;;;;5015640;28;20367;-88
2021/04/17 10:56:16;;;;;;;10.63;7.05;;;9.90;61.40;;;;;;5020078;28;20064;-88
2021/04/17 10:58:45;;;;;;;9.88;6.28;;;10.10;63.70;;;;;;5013558;28;20054;-87
2021/04/17 11:01:23;;;;;;;8.95;5.93;;;10.50;62.30;;;;;;5010515;28;20046;-87
2021/04/17 11:03:53;;;;;;;12.32;6.78;;;10.90;59.90;;;;;;5015306;28;20065;-87
2021/04/17 11:06:24;;;;;;;9.77;6.45;;;11.30;59.70;;;;;;5013047;28;20132;-86
2021/04/17 11:09:04;;;;;;;10.23;6.50;;;11.20;57.80;;;;;;5021775;28;20062;-87
2021/04/17 11:11:31;;;;;;;8.55;6.40;;;11.60;59.00;;;;;;5018447;28;20054;-86
2021/04/17 11:14:04;;;;;;;11.75;6.75;;;12.00;57.30;;;;;;5017222;28;20062;-86
2021/04/17 11:16:50;;;;;;;9.90;6.53;;;12.20;57.20;;;;;;5016499;28;20576;-86
2021/04/17 11:19:32;;;;;;;9.30;6.10;;;12.80;55.90;;;;;;5015910;28;20108;-88
2021/04/17 11:22:21;;;;;;;11.70;7.38;;;12.70;53.80;;;;;;4990571;28;20062;-87
2021/04/17 11:24:56;;;;;;;7.05;5.25;;;12.80;55.00;;;;;;5015403;28;20387;-88
2021/04/17 11:27:26;;;;;;;11.95;6.45;;;13.70;53.10;;;;;;5015221;28;20050;-87
2021/04/17 11:29:52;;;;;;;8.40;5.78;;;14.30;52.60;;;;;;5015216;28;20426;-88
2021/04/17 11:32:20;;;;;;;7.28;5.45;;;14.40;51.00;;;;;;5004158;28;20117;-86
2021/04/17 11:34:51;;;;;;;9.38;5.65;;;14.80;50.50;;;;;;5015485;28;20127;-87
2021/04/17 11:37:19;;;;;;;11.70;5.53;;;15.30;50.00;;;;;;5015715;28;20049;-87
2021/04/17 11:39:45;;;;;;;13.18;5.53;;;15.10;49.20;;;;;;5015406;28;20050;-86
2021/04/17 11:42:17;;;;;;;8.63;5.80;;;14.70;48.70;;;;;;5014311;28;20090;-86
2021/04/17 11:44:44;;;;;;;11.93;5.72;;;14.10;49.80;;;;;;5008856;28;20454;-86
2021/04/17 11:47:11;;;;;;;7.43;5.78;;;14.00;52.10;;;;;;5019458;28;20054;-88
2021/04/17 11:49:40;;;;;;;8.70;5.35;;;14.80;50.40;;;;;;5028933;28;20049;-87
2021/04/17 11:52:08;;;;;;;7.60;5.50;;;14.50;48.70;;;;;;5005922;28;20046;-87
2021/04/17 11:54:35;;;;;;;7.90;5.60;;;13.80;50.10;;;;;;5020664;28;20065;-86
2021/04/17 11:57:05;;;;;;;8.13;5.90;;;13.10;51.40;;;;;;5009512;28;20054;-87
2021/04/17 11:59:32;;;;;;;7.97;4.75;;;12.30;53.00;;;;;;5017472;28;20155;-86
2021/04/17 12:02:01;;;;;;;8.18;4.82;;;11.90;53.80;;;;;;5020510;28;20077;-87
2021/04/17 12:04:29;;;;;;;7.47;4.35;;;11.50;53.60;;;;;;5026889;28;20045;-86
2021/04/17 12:06:55;;;;;;;7.82;4.10;;;11.40;54.20;;;;;;5030070;28;20046;-86
2021/04/17 12:09:23;;;;;;;6.57;4.88;;;11.50;55.10;;;;;;5027650;28;20112;-87
2021/04/17 12:11:49;;;;;;;7.40;4.82;;;11.50;54.90;;;;;;5024177;28;20050;-86
2021/04/17 12:14:16;;;;;;;8.52;5.78;;;11.90;55.10;;;;;;5015112;28;20069;-87
2021/04/17 12:16:45;;;;;;;7.72;4.72;;;12.50;54.50;;;;;;5013934;28;20098;-88
2021/04/17 12:19:11;;;;;;;8.15;5.45;;;13.00;53.60;;;;;;5014536;28;20491;-87
2021/04/17 12:21:38;;;;;;;8.20;5.10;;;13.70;53.10;;;;;;5015300;28;20046;-85
2021/04/17 12:24:06;;;;;;;7.05;4.63;;;14.80;50.40;;;;;;5005433;28;20049;-87
2021/04/17 12:26:36;;;;;;;7.05;4.53;;;15.00;49.10;;;;;;5015159;28;20065;-86
2021/04/17 12:29:07;;;;;;;6.30;4.50;;;14.70;48.80;;;;;;4997022;28;20145;-87
2021/04/17 12:31:34;;;;;;;7.70;4.88;;;14.00;49.80;;;;;;5011230;28;20053;-86
2021/04/17 12:34:06;;;;;;;7.30;4.93;;;13.20;51.60;;;;;;4988075;28;20042;-86
2021/04/17 12:36:33;;;;;;;5.88;4.35;;;13.30;51.30;;;;;;5017320;28;20068;-86
2021/04/17 12:38:59;;;;;;;6.20;4.57;;;13.50;50.70;;;;;;4999700;28;20096;-86
2021/04/17 12:41:27;;;;;;;11.05;4.00;;;13.50;51.30;;;;;;5015598;28;20049;-86
2021/04/17 12:43:54;;;;;;;8.43;4.55;;;13.90;51.70;;;;;;5008160;28;20058;-87
2021/04/17 12:46:24;;;;;;;13.32;4.25;;;13.90;48.50;;;;;;5014837;28;20045;-89
2021/04/17 12:48:50;;;;;;;6.97;4.30;;;14.30;49.00;;;;;;5014210;28;20096;-87
2021/04/17 12:51:17;;;;;;;5.60;4.00;;;14.10;48.50;;;;;;5013612;28;20557;-87
2021/04/17 12:53:54;;;;;;;4.55;4.03;;;13.70;48.80;;;;;;5006500;28;20100;-87
2021/04/17 12:56:22;;;;;;;5.72;3.90;;;13.00;50.80;;;;;;5014490;28;20042;-86
2021/04/17 12:58:48;;;;;;;9.27;3.92;;;12.70;52.00;;;;;;5013809;28;20061;-86